sensor_id;sensor_type;location;lat;lon;timestamp;pressure;altitude;pressure_sealevel;temperature;humidity
11712;BME280;5912;51.034;6.984;2023-06-19T00:01:13;56015.81;;;-142.13;48.67
11712;BME280;5912;51.034;6.984;2023-06-19T00:03:39;55987.75;;;-142.13;48.60
11712;BME280;5912;51.034;6.984;2023-06-19T00:06:05;55975.75;;;-142.13;48.95
11712;BME280;5912;51.034;6.984;2023-06-19T00:08:30;56007.78;;;-142.13;49.10
11712;BME280;5912;51.034;6.984;2023-06-19T00:10:56;55977.75;;;-142.13;49.31
11712;BME280;5912;51.034;6.984;2023-06-19T00:13:21;56009.78;;;-142.13;49.12
11712;BME280;5912;51.034;6.984;2023-06-19T00:15:46;56001.78;;;-142.13;48.92
11712;BME280;5912;51.034;6.984;2023-06-19T00:18:12;56011.78;;;-142.13;49.19
11712;BME280;5912;51.034;6.984;2023-06-19T00:20:37;55993.75;;;-142.13;49.02
11712;BME280;5912;51.034;6.984;2023-06-19T00:23:04;55989.75;;;-142.13;48.86
11712;BME280;5912;51.034;6.984;2023-06-19T00:25:29;56011.78;;;-142.13;48.62
11712;BME280;5912;51.034;6.984;2023-06-19T00:27:55;55977.75;;;-142.13;48.71
11712;BME280;5912;51.034;6.984;2023-06-19T00:30:20;56017.81;;;-142.13;49.25
11712;BME280;5912;51.034;6.984;2023-06-19T00:32:45;56009.78;;;-142.13;48.79
11712;BME280;5912;51.034;6.984;2023-06-19T00:35:15;55995.78;;;-142.13;48.99
11712;BME280;5912;51.034;6.984;2023-06-19T00:37:41;56009.78;;;-142.13;48.76
11712;BME280;5912;51.034;6.984;2023-06-19T00:40:19;55997.78;;;-142.13;49.21
11712;BME280;5912;51.034;6.984;2023-06-19T00:42:46;56011.78;;;-142.13;49.73
11712;BME280;5912;51.034;6.984;2023-06-19T00:45:11;55995.78;;;-142.13;49.68
11712;BME280;5912;51.034;6.984;2023-06-19T00:47:37;55999.78;;;-142.13;49.58
11712;BME280;5912;51.034;6.984;2023-06-19T00:50:02;56009.78;;;-142.13;49.55
11712;BME280;5912;51.034;6.984;2023-06-19T00:52:28;56019.81;;;-142.13;49.92
11712;BME280;5912;51.034;6.984;2023-06-19T00:54:53;56019.81;;;-142.13;49.70
11712;BME280;5912;51.034;6.984;2023-06-19T00:57:19;56017.81;;;-142.13;49.97
11712;BME280;5912;51.034;6.984;2023-06-19T00:59:44;56003.78;;;-142.13;49.59
11712;BME280;5912;51.034;6.984;2023-06-19T01:02:09;56019.81;;;-142.13;49.65
11712;BME280;5912;51.034;6.984;2023-06-19T01:04:35;55991.75;;;-142.13;49.38
11712;BME280;5912;51.034;6.984;2023-06-19T01:07:11;55981.75;;;-142.13;49.21
11712;BME280;5912;51.034;6.984;2023-06-19T01:09:47;56007.78;;;-142.13;49.03
11712;BME280;5912;51.034;6.984;2023-06-19T01:12:22;55999.78;;;-142.13;48.99
11712;BME280;5912;51.034;6.984;2023-06-19T01:14:58;56019.81;;;-142.13;48.56
11712;BME280;5912;51.034;6.984;2023-06-19T01:17:26;55999.78;;;-142.13;48.28
11712;BME280;5912;51.034;6.984;2023-06-19T01:19:52;56003.78;;;-142.13;48.05
11712;BME280;5912;51.034;6.984;2023-06-19T01:22:31;56007.78;;;-142.13;47.90
11712;BME280;5912;51.034;6.984;2023-06-19T01:24:56;55999.78;;;-142.13;47.55
11712;BME280;5912;51.034;6.984;2023-06-19T01:27:25;56001.78;;;-142.13;47.76
11712;BME280;5912;51.034;6.984;2023-06-19T01:29:55;55975.75;;;-142.13;47.71
11712;BME280;5912;51.034;6.984;2023-06-19T01:32:26;56027.81;;;-142.13;48.23
11712;BME280;5912;51.034;6.984;2023-06-19T01:34:56;55991.75;;;-142.13;48.06
11712;BME280;5912;51.034;6.984;2023-06-19T01:37:24;56013.78;;;-142.13;48.31
11712;BME280;5912;51.034;6.984;2023-06-19T01:39:52;56017.81;;;-142.13;48.55
11712;BME280;5912;51.034;6.984;2023-06-19T01:42:19;56039.84;;;-142.13;48.88
11712;BME280;5912;51.034;6.984;2023-06-19T01:44:45;56023.81;;;-142.13;49.30
11712;BME280;5912;51.034;6.984;2023-06-19T01:47:11;56009.78;;;-142.13;49.20
11712;BME280;5912;51.034;6.984;2023-06-19T01:49:38;56033.81;;;-142.13;49.57
11712;BME280;5912;51.034;6.984;2023-06-19T01:52:04;56059.88;;;-142.13;49.90
11712;BME280;5912;51.034;6.984;2023-06-19T01:54:29;56009.78;;;-142.13;49.59
11712;BME280;5912;51.034;6.984;2023-06-19T01:56:56;55999.78;;;-142.13;49.72
11712;BME280;5912;51.034;6.984;2023-06-19T01:59:21;55989.75;;;-142.13;49.44
11712;BME280;5912;51.034;6.984;2023-06-19T02:01:47;56005.78;;;-142.13;49.93
11712;BME280;5912;51.034;6.984;2023-06-19T02:04:12;56027.81;;;-142.13;49.88
11712;BME280;5912;51.034;6.984;2023-06-19T02:06:37;56021.81;;;-142.13;49.78
11712;BME280;5912;51.034;6.984;2023-06-19T02:09:03;56015.81;;;-142.13;49.55
11712;BME280;5912;51.034;6.984;2023-06-19T02:11:28;56015.81;;;-142.13;49.89
11712;BME280;5912;51.034;6.984;2023-06-19T02:13:53;56013.78;;;-142.13;50.03
11712;BME280;5912;51.034;6.984;2023-06-19T02:16:18;56043.84;;;-142.13;49.96
11712;BME280;5912;51.034;6.984;2023-06-19T02:18:44;56041.84;;;-142.13;50.00
11712;BME280;5912;51.034;6.984;2023-06-19T02:21:09;56043.84;;;-142.13;49.86
11712;BME280;5912;51.034;6.984;2023-06-19T02:23:34;56027.81;;;-142.13;50.28
11712;BME280;5912;51.034;6.984;2023-06-19T02:26:00;56031.81;;;-142.13;49.98
11712;BME280;5912;51.034;6.984;2023-06-19T02:28:25;56005.78;;;-142.13;50.01
11712;BME280;5912;51.034;6.984;2023-06-19T02:30:52;56039.84;;;-142.13;50.53
11712;BME280;5912;51.034;6.984;2023-06-19T02:33:17;56011.78;;;-142.13;50.40
11712;BME280;5912;51.034;6.984;2023-06-19T02:35:43;56023.81;;;-142.13;50.46
11712;BME280;5912;51.034;6.984;2023-06-19T02:38:09;56009.78;;;-142.13;50.32
11712;BME280;5912;51.034;6.984;2023-06-19T02:40:35;56009.78;;;-142.13;50.13
11712;BME280;5912;51.034;6.984;2023-06-19T02:43:00;56025.81;;;-142.13;50.16
11712;BME280;5912;51.034;6.984;2023-06-19T02:45:25;56021.81;;;-142.13;50.48
11712;BME280;5912;51.034;6.984;2023-06-19T02:47:50;56015.81;;;-142.13;50.46
11712;BME280;5912;51.034;6.984;2023-06-19T02:50:17;56007.78;;;-142.13;50.58
11712;BME280;5912;51.034;6.984;2023-06-19T02:52:42;56035.81;;;-142.13;51.06
11712;BME280;5912;51.034;6.984;2023-06-19T02:55:08;56011.78;;;-142.13;50.71
11712;BME280;5912;51.034;6.984;2023-06-19T02:57:33;56027.81;;;-142.13;50.65
11712;BME280;5912;51.034;6.984;2023-06-19T02:59:58;56027.81;;;-142.13;50.75
11712;BME280;5912;51.034;6.984;2023-06-19T03:02:24;56023.81;;;-142.13;50.58
11712;BME280;5912;51.034;6.984;2023-06-19T03:04:49;56025.81;;;-142.13;50.75
11712;BME280;5912;51.034;6.984;2023-06-19T03:07:15;56031.81;;;-142.13;50.91
11712;BME280;5912;51.034;6.984;2023-06-19T03:09:41;56035.81;;;-142.13;50.98
11712;BME280;5912;51.034;6.984;2023-06-19T03:12:07;56017.81;;;-142.13;51.23
11712;BME280;5912;51.034;6.984;2023-06-19T03:14:33;56031.81;;;-142.13;51.25
11712;BME280;5912;51.034;6.984;2023-06-19T03:16:58;56029.81;;;-142.13;51.47
11712;BME280;5912;51.034;6.984;2023-06-19T03:19:24;56029.81;;;-142.13;51.70
11712;BME280;5912;51.034;6.984;2023-06-19T03:21:49;56043.84;;;-142.13;52.00
11712;BME280;5912;51.034;6.984;2023-06-19T03:24:14;56039.84;;;-142.13;52.15
11712;BME280;5912;51.034;6.984;2023-06-19T03:26:39;56057.88;;;-142.13;53.08
11712;BME280;5912;51.034;6.984;2023-06-19T03:29:05;56051.84;;;-142.13;52.81
11712;BME280;5912;51.034;6.984;2023-06-19T03:31:30;56041.84;;;-142.13;53.06
11712;BME280;5912;51.034;6.984;2023-06-19T03:33:56;56043.84;;;-142.13;53.03
11712;BME280;5912;51.034;6.984;2023-06-19T03:36:21;56057.88;;;-142.13;53.46
11712;BME280;5912;51.034;6.984;2023-06-19T03:38:48;56053.84;;;-142.13;53.54
11712;BME280;5912;51.034;6.984;2023-06-19T03:41:13;56075.88;;;-142.13;53.76
11712;BME280;5912;51.034;6.984;2023-06-19T03:43:38;56069.88;;;-142.13;53.79
11712;BME280;5912;51.034;6.984;2023-06-19T03:46:04;56081.91;;;-142.13;54.07
11712;BME280;5912;51.034;6.984;2023-06-19T03:48:30;56059.88;;;-142.13;54.26
11712;BME280;5912;51.034;6.984;2023-06-19T03:50:55;56081.91;;;-142.13;54.79
11712;BME280;5912;51.034;6.984;2023-06-19T03:53:21;56061.88;;;-142.13;54.65
11712;BME280;5912;51.034;6.984;2023-06-19T03:55:46;56053.84;;;-142.13;54.21
11712;BME280;5912;51.034;6.984;2023-06-19T03:58:11;56071.88;;;-142.13;54.44
11712;BME280;5912;51.034;6.984;2023-06-19T04:00:36;56063.88;;;-142.13;53.89
11712;BME280;5912;51.034;6.984;2023-06-19T04:03:02;56063.88;;;-142.13;53.87
11712;BME280;5912;51.034;6.984;2023-06-19T04:05:27;56033.81;;;-142.13;53.82
11712;BME280;5912;51.034;6.984;2023-06-19T04:07:52;56079.91;;;-142.13;53.66
11712;BME280;5912;51.034;6.984;2023-06-19T04:10:18;56059.88;;;-142.13;53.99
11712;BME280;5912;51.034;6.984;2023-06-19T04:12:43;56067.88;;;-142.13;54.04
11712;BME280;5912;51.034;6.984;2023-06-19T04:15:10;56051.84;;;-142.13;54.08
11712;BME280;5912;51.034;6.984;2023-06-19T04:17:35;56053.84;;;-142.13;53.99
11712;BME280;5912;51.034;6.984;2023-06-19T04:20:01;56041.84;;;-142.13;54.12
11712;BME280;5912;51.034;6.984;2023-06-19T04:22:26;56027.81;;;-142.13;54.03
11712;BME280;5912;51.034;6.984;2023-06-19T04:24:51;56051.84;;;-142.13;54.18
11712;BME280;5912;51.034;6.984;2023-06-19T04:27:17;56063.88;;;-142.13;53.94
11712;BME280;5912;51.034;6.984;2023-06-19T04:29:42;56017.81;;;-142.13;53.54
11712;BME280;5912;51.034;6.984;2023-06-19T04:32:07;56015.81;;;-142.13;53.46
11712;BME280;5912;51.034;6.984;2023-06-19T04:34:41;56031.81;;;-142.13;53.68
11712;BME280;5912;51.034;6.984;2023-06-19T04:37:11;56047.84;;;-142.13;53.68
11712;BME280;5912;51.034;6.984;2023-06-19T04:39:36;56069.88;;;-142.13;53.99
11712;BME280;5912;51.034;6.984;2023-06-19T04:42:01;56049.84;;;-142.13;54.00
11712;BME280;5912;51.034;6.984;2023-06-19T04:44:26;56049.84;;;-142.13;54.02
11712;BME280;5912;51.034;6.984;2023-06-19T04:46:52;56053.84;;;-142.13;54.18
11712;BME280;5912;51.034;6.984;2023-06-19T04:49:25;56035.81;;;-142.13;54.19
11712;BME280;5912;51.034;6.984;2023-06-19T04:51:51;56047.84;;;-142.13;54.37
11712;BME280;5912;51.034;6.984;2023-06-19T04:54:16;56051.84;;;-142.13;54.21
11712;BME280;5912;51.034;6.984;2023-06-19T04:56:41;56039.84;;;-142.13;54.13
11712;BME280;5912;51.034;6.984;2023-06-19T04:59:07;56037.84;;;-142.13;54.28
11712;BME280;5912;51.034;6.984;2023-06-19T05:01:32;56041.84;;;-142.13;54.56
11712;BME280;5912;51.034;6.984;2023-06-19T05:03:57;56063.88;;;-142.13;54.36
11712;BME280;5912;51.034;6.984;2023-06-19T05:06:25;56055.84;;;-142.13;54.53
11712;BME280;5912;51.034;6.984;2023-06-19T05:08:50;56059.88;;;-142.13;54.65
11712;BME280;5912;51.034;6.984;2023-06-19T05:11:16;56027.81;;;-142.13;54.53
11712;BME280;5912;51.034;6.984;2023-06-19T05:13:42;56039.84;;;-142.13;54.44
11712;BME280;5912;51.034;6.984;2023-06-19T05:16:07;56025.81;;;-142.13;54.33
11712;BME280;5912;51.034;6.984;2023-06-19T05:18:32;56023.81;;;-142.13;54.46
11712;BME280;5912;51.034;6.984;2023-06-19T05:20:57;56023.81;;;-142.13;53.70
11712;BME280;5912;51.034;6.984;2023-06-19T05:23:23;56037.84;;;-142.13;53.67
11712;BME280;5912;51.034;6.984;2023-06-19T05:25:48;56027.81;;;-142.13;53.72
11712;BME280;5912;51.034;6.984;2023-06-19T05:28:13;56007.78;;;-142.13;53.83
11712;BME280;5912;51.034;6.984;2023-06-19T05:30:39;56003.78;;;-142.13;53.72
11712;BME280;5912;51.034;6.984;2023-06-19T05:33:04;56015.81;;;-142.13;53.08
11712;BME280;5912;51.034;6.984;2023-06-19T05:35:29;56007.78;;;-142.13;52.82
11712;BME280;5912;51.034;6.984;2023-06-19T05:37:55;56011.78;;;-142.13;52.05
11712;BME280;5912;51.034;6.984;2023-06-19T05:40:21;55977.75;;;-142.13;51.95
11712;BME280;5912;51.034;6.984;2023-06-19T05:42:46;55979.75;;;-142.13;50.91
11712;BME280;5912;51.034;6.984;2023-06-19T05:45:11;55971.72;;;-142.13;49.35
11712;BME280;5912;51.034;6.984;2023-06-19T05:47:37;55969.72;;;-142.13;48.63
11712;BME280;5912;51.034;6.984;2023-06-19T05:50:03;55959.72;;;-142.13;47.68
11712;BME280;5912;51.034;6.984;2023-06-19T05:52:28;55961.72;;;-142.13;47.21
11712;BME280;5912;51.034;6.984;2023-06-19T05:54:54;55951.69;;;-142.13;46.31
11712;BME280;5912;51.034;6.984;2023-06-19T05:57:19;55963.72;;;-142.13;46.32
11712;BME280;5912;51.034;6.984;2023-06-19T05:59:48;55947.69;;;-142.13;45.89
11712;BME280;5912;51.034;6.984;2023-06-19T06:02:13;55935.69;;;-142.13;45.71
11712;BME280;5912;51.034;6.984;2023-06-19T06:04:39;55935.69;;;-142.13;43.83
11712;BME280;5912;51.034;6.984;2023-06-19T06:07:05;55911.66;;;-142.13;43.70
11712;BME280;5912;51.034;6.984;2023-06-19T06:09:30;55903.63;;;-142.13;41.95
11712;BME280;5912;51.034;6.984;2023-06-19T06:11:56;55893.63;;;-142.13;40.96
11712;BME280;5912;51.034;6.984;2023-06-19T06:14:21;55843.53;;;-142.13;39.85
11712;BME280;5912;51.034;6.984;2023-06-19T06:16:46;55847.56;;;-142.13;38.21
11712;BME280;5912;51.034;6.984;2023-06-19T06:19:12;55817.50;;;-142.13;37.21
11712;BME280;5912;51.034;6.984;2023-06-19T06:21:37;55819.50;;;-142.13;36.56
11712;BME280;5912;51.034;6.984;2023-06-19T06:24:03;55807.50;;;-142.13;35.98
11712;BME280;5912;51.034;6.984;2023-06-19T06:26:28;55777.44;;;-142.13;34.79
11712;BME280;5912;51.034;6.984;2023-06-19T06:28:54;55763.44;;;-142.13;34.55
11712;BME280;5912;51.034;6.984;2023-06-19T06:31:21;55767.44;;;-142.13;34.91
11712;BME280;5912;51.034;6.984;2023-06-19T06:33:46;55807.50;;;-142.13;35.03
11712;BME280;5912;51.034;6.984;2023-06-19T06:36:14;55807.50;;;-142.13;35.42
11712;BME280;5912;51.034;6.984;2023-06-19T06:38:40;55847.56;;;-142.13;35.88
11712;BME280;5912;51.034;6.984;2023-06-19T06:41:05;55831.53;;;-142.13;37.05
11712;BME280;5912;51.034;6.984;2023-06-19T06:43:30;55859.56;;;-142.13;37.45
11712;BME280;5912;51.034;6.984;2023-06-19T06:45:56;55873.59;;;-142.13;38.21
11712;BME280;5912;51.034;6.984;2023-06-19T06:48:21;55923.66;;;-142.13;38.93
11712;BME280;5912;51.034;6.984;2023-06-19T06:50:46;55879.59;;;-142.13;39.62
11712;BME280;5912;51.034;6.984;2023-06-19T06:53:11;55897.63;;;-142.13;39.41
11712;BME280;5912;51.034;6.984;2023-06-19T06:55:37;55903.63;;;-142.13;39.45
11712;BME280;5912;51.034;6.984;2023-06-19T06:58:02;55899.63;;;-142.13;39.86
11712;BME280;5912;51.034;6.984;2023-06-19T07:00:28;55881.59;;;-142.13;39.41
11712;BME280;5912;51.034;6.984;2023-06-19T07:02:54;55879.59;;;-142.13;39.29
11712;BME280;5912;51.034;6.984;2023-06-19T07:05:19;55909.63;;;-142.13;39.80
11712;BME280;5912;51.034;6.984;2023-06-19T07:07:44;55911.66;;;-142.13;39.87
11712;BME280;5912;51.034;6.984;2023-06-19T07:10:10;55919.66;;;-142.13;40.30
11712;BME280;5912;51.034;6.984;2023-06-19T07:12:35;55935.69;;;-142.13;40.88
11712;BME280;5912;51.034;6.984;2023-06-19T07:15:09;55939.69;;;-142.13;41.08
11712;BME280;5912;51.034;6.984;2023-06-19T07:17:34;55891.63;;;-142.13;40.70
11712;BME280;5912;51.034;6.984;2023-06-19T07:19:59;55917.66;;;-142.13;40.65
11712;BME280;5912;51.034;6.984;2023-06-19T07:22:24;55909.63;;;-142.13;40.19
11712;BME280;5912;51.034;6.984;2023-06-19T07:24:50;55911.66;;;-142.13;39.95
11712;BME280;5912;51.034;6.984;2023-06-19T07:27:15;55879.59;;;-142.13;39.19
11712;BME280;5912;51.034;6.984;2023-06-19T07:29:40;55873.59;;;-142.13;38.40
11712;BME280;5912;51.034;6.984;2023-06-19T07:32:06;55863.56;;;-142.13;37.37
11712;BME280;5912;51.034;6.984;2023-06-19T07:34:31;55795.47;;;-142.13;36.12
11712;BME280;5912;51.034;6.984;2023-06-19T07:36:57;55761.41;;;-142.13;35.21
11712;BME280;5912;51.034;6.984;2023-06-19T07:39:22;55747.41;;;-142.13;33.85
11712;BME280;5912;51.034;6.984;2023-06-19T07:41:48;55723.38;;;-142.13;33.54
11712;BME280;5912;51.034;6.984;2023-06-19T07:44:13;55747.41;;;-142.13;33.81
11712;BME280;5912;51.034;6.984;2023-06-19T07:46:38;55765.44;;;-142.13;33.54
11712;BME280;5912;51.034;6.984;2023-06-19T07:49:04;55757.41;;;-142.13;34.43
11712;BME280;5912;51.034;6.984;2023-06-19T07:51:50;55803.47;;;-142.13;35.31
11712;BME280;5912;51.034;6.984;2023-06-19T07:54:16;55807.50;;;-142.13;35.59
11712;BME280;5912;51.034;6.984;2023-06-19T07:56:41;55799.47;;;-142.13;35.76
11712;BME280;5912;51.034;6.984;2023-06-19T07:59:06;55803.47;;;-142.13;35.57
11712;BME280;5912;51.034;6.984;2023-06-19T08:01:32;55791.47;;;-142.13;36.27
11712;BME280;5912;51.034;6.984;2023-06-19T08:03:57;55803.47;;;-142.13;36.36
11712;BME280;5912;51.034;6.984;2023-06-19T08:06:22;55815.50;;;-142.13;36.73
11712;BME280;5912;51.034;6.984;2023-06-19T08:08:48;55805.50;;;-142.13;36.87
11712;BME280;5912;51.034;6.984;2023-06-19T08:11:13;55823.50;;;-142.13;36.18
11712;BME280;5912;51.034;6.984;2023-06-19T08:13:38;55797.47;;;-142.13;36.61
11712;BME280;5912;51.034;6.984;2023-06-19T08:16:04;55785.47;;;-142.13;35.87
11712;BME280;5912;51.034;6.984;2023-06-19T08:18:30;55771.44;;;-142.13;35.45
11712;BME280;5912;51.034;6.984;2023-06-19T08:20:55;55763.44;;;-142.13;35.46
11712;BME280;5912;51.034;6.984;2023-06-19T08:23:20;55789.47;;;-142.13;35.35
11712;BME280;5912;51.034;6.984;2023-06-19T08:25:45;55775.44;;;-142.13;35.15
11712;BME280;5912;51.034;6.984;2023-06-19T08:28:11;55763.44;;;-142.13;35.24
11712;BME280;5912;51.034;6.984;2023-06-19T08:30:36;55755.41;;;-142.13;34.92
11712;BME280;5912;51.034;6.984;2023-06-19T08:33:02;55779.44;;;-142.13;34.57
11712;BME280;5912;51.034;6.984;2023-06-19T08:35:27;55735.38;;;-142.13;33.61
11712;BME280;5912;51.034;6.984;2023-06-19T08:37:52;55717.34;;;-142.13;32.87
11712;BME280;5912;51.034;6.984;2023-06-19T08:40:19;55693.31;;;-142.13;32.68
11712;BME280;5912;51.034;6.984;2023-06-19T08:42:44;55691.31;;;-142.13;31.83
11712;BME280;5912;51.034;6.984;2023-06-19T08:45:09;55687.31;;;-142.13;32.24
11712;BME280;5912;51.034;6.984;2023-06-19T08:47:35;55679.31;;;-142.13;31.76
11712;BME280;5912;51.034;6.984;2023-06-19T08:50:00;55705.34;;;-142.13;31.83
11712;BME280;5912;51.034;6.984;2023-06-19T08:52:25;55699.34;;;-142.13;32.16
11712;BME280;5912;51.034;6.984;2023-06-19T08:54:51;55715.34;;;-142.13;32.05
11712;BME280;5912;51.034;6.984;2023-06-19T08:57:17;55691.31;;;-142.13;31.56
11712;BME280;5912;51.034;6.984;2023-06-19T08:59:49;55659.28;;;-142.13;31.00
11712;BME280;5912;51.034;6.984;2023-06-19T09:02:15;55679.31;;;-142.13;30.51
11712;BME280;5912;51.034;6.984;2023-06-19T09:04:41;55659.28;;;-142.13;30.63
11712;BME280;5912;51.034;6.984;2023-06-19T09:07:07;55665.28;;;-142.13;30.29
11712;BME280;5912;51.034;6.984;2023-06-19T09:09:33;55671.28;;;-142.13;30.68
11712;BME280;5912;51.034;6.984;2023-06-19T09:12:03;55599.19;;;-142.13;29.66
11712;BME280;5912;51.034;6.984;2023-06-19T09:14:32;55607.19;;;-142.13;29.22
11712;BME280;5912;51.034;6.984;2023-06-19T09:16:59;55567.16;;;-142.13;28.78
11712;BME280;5912;51.034;6.984;2023-06-19T09:19:24;55591.19;;;-142.13;28.05
11712;BME280;5912;51.034;6.984;2023-06-19T09:21:49;55597.19;;;-142.13;28.27
11712;BME280;5912;51.034;6.984;2023-06-19T09:24:15;55605.19;;;-142.13;28.71
11712;BME280;5912;51.034;6.984;2023-06-19T09:26:40;55631.25;;;-142.13;29.75
11712;BME280;5912;51.034;6.984;2023-06-19T09:29:15;55631.25;;;-142.13;29.71
11712;BME280;5912;51.034;6.984;2023-06-19T09:31:44;55601.19;;;-142.13;29.57
11712;BME280;5912;51.034;6.984;2023-06-19T09:34:09;55615.22;;;-142.13;29.47
11712;BME280;5912;51.034;6.984;2023-06-19T09:36:35;55599.19;;;-142.13;29.15
11712;BME280;5912;51.034;6.984;2023-06-19T09:39:02;55587.19;;;-142.13;28.71
11712;BME280;5912;51.034;6.984;2023-06-19T09:41:29;55599.19;;;-142.13;28.44
11712;BME280;5912;51.034;6.984;2023-06-19T09:43:56;55603.19;;;-142.13;28.77
11712;BME280;5912;51.034;6.984;2023-06-19T09:46:30;55595.19;;;-142.13;28.34
11712;BME280;5912;51.034;6.984;2023-06-19T09:49:00;55609.22;;;-142.13;28.25
11712;BME280;5912;51.034;6.984;2023-06-19T09:51:37;55601.19;;;-142.13;28.02
11712;BME280;5912;51.034;6.984;2023-06-19T09:54:04;55571.16;;;-142.13;27.93
11712;BME280;5912;51.034;6.984;2023-06-19T09:56:31;55559.13;;;-142.13;27.54
11712;BME280;5912;51.034;6.984;2023-06-19T09:58:57;55559.13;;;-142.13;27.44
11712;BME280;5912;51.034;6.984;2023-06-19T10:01:29;55559.13;;;-142.13;27.57
11712;BME280;5912;51.034;6.984;2023-06-19T10:04:04;55527.09;;;-142.13;26.99
11712;BME280;5912;51.034;6.984;2023-06-19T10:06:30;55515.06;;;-142.13;26.48
11712;BME280;5912;51.034;6.984;2023-06-19T10:09:06;55507.06;;;-142.13;26.54
11712;BME280;5912;51.034;6.984;2023-06-19T10:11:44;55503.06;;;-142.13;26.00
11712;BME280;5912;51.034;6.984;2023-06-19T10:14:10;55509.06;;;-142.13;26.64
11712;BME280;5912;51.034;6.984;2023-06-19T10:16:36;55503.06;;;-142.13;26.17
11712;BME280;5912;51.034;6.984;2023-06-19T10:19:11;55491.03;;;-142.13;26.31
11712;BME280;5912;51.034;6.984;2023-06-19T10:21:50;55483.03;;;-142.13;25.92
11712;BME280;5912;51.034;6.984;2023-06-19T10:24:17;55485.03;;;-142.13;25.97
11712;BME280;5912;51.034;6.984;2023-06-19T10:26:59;55487.03;;;-142.13;26.30
11712;BME280;5912;51.034;6.984;2023-06-19T10:29:24;55493.03;;;-142.13;25.92
11712;BME280;5912;51.034;6.984;2023-06-19T10:31:50;55517.06;;;-142.13;25.87
11712;BME280;5912;51.034;6.984;2023-06-19T10:34:16;55533.09;;;-142.13;26.07
11712;BME280;5912;51.034;6.984;2023-06-19T10:36:47;55527.09;;;-142.13;26.38
11712;BME280;5912;51.034;6.984;2023-06-19T10:39:12;55527.09;;;-142.13;26.44
11712;BME280;5912;51.034;6.984;2023-06-19T10:41:40;55525.09;;;-142.13;26.63
11712;BME280;5912;51.034;6.984;2023-06-19T10:44:06;55505.06;;;-142.13;25.78
11712;BME280;5912;51.034;6.984;2023-06-19T10:46:37;55491.03;;;-142.13;25.73
11712;BME280;5912;51.034;6.984;2023-06-19T10:49:05;55487.03;;;-142.13;25.48
11712;BME280;5912;51.034;6.984;2023-06-19T10:51:36;55475.03;;;-142.13;25.46
11712;BME280;5912;51.034;6.984;2023-06-19T10:54:01;55487.03;;;-142.13;25.27
11712;BME280;5912;51.034;6.984;2023-06-19T10:56:27;55483.03;;;-142.13;24.72
11712;BME280;5912;51.034;6.984;2023-06-19T11:01:41;55489.03;;;-142.13;25.28
11712;BME280;5912;51.034;6.984;2023-06-19T11:04:08;55499.06;;;-142.13;25.30
11712;BME280;5912;51.034;6.984;2023-06-19T11:06:34;55477.03;;;-142.13;25.20
11712;BME280;5912;51.034;6.984;2023-06-19T11:09:00;55465.00;;;-142.13;24.91
11712;BME280;5912;51.034;6.984;2023-06-19T11:11:41;55489.03;;;-142.13;25.55
11712;BME280;5912;51.034;6.984;2023-06-19T11:14:08;55479.03;;;-142.13;24.96
11712;BME280;5912;51.034;6.984;2023-06-19T11:16:34;55487.03;;;-142.13;24.57
11712;BME280;5912;51.034;6.984;2023-06-19T11:19:02;55471.00;;;-142.13;24.37
11712;BME280;5912;51.034;6.984;2023-06-19T11:21:32;55446.97;;;-142.13;24.36
11712;BME280;5912;51.034;6.984;2023-06-19T11:24:00;55461.00;;;-142.13;24.76
11712;BME280;5912;51.034;6.984;2023-06-19T11:26:26;55453.00;;;-142.13;24.83
11712;BME280;5912;51.034;6.984;2023-06-19T11:28:51;55467.00;;;-142.13;24.24
11712;BME280;5912;51.034;6.984;2023-06-19T11:31:16;55438.97;;;-142.13;24.22
11712;BME280;5912;51.034;6.984;2023-06-19T11:33:42;55434.97;;;-142.13;24.57
11712;BME280;5912;51.034;6.984;2023-06-19T11:36:08;55434.97;;;-142.13;24.24
11712;BME280;5912;51.034;6.984;2023-06-19T11:38:35;55420.94;;;-142.13;23.70
11712;BME280;5912;51.034;6.984;2023-06-19T11:41:02;55438.97;;;-142.13;24.18
11712;BME280;5912;51.034;6.984;2023-06-19T11:43:28;55438.97;;;-142.13;24.51
11712;BME280;5912;51.034;6.984;2023-06-19T11:46:01;55438.97;;;-142.13;24.07
11712;BME280;5912;51.034;6.984;2023-06-19T11:48:27;55422.94;;;-142.13;24.65
11712;BME280;5912;51.034;6.984;2023-06-19T11:50:53;55414.94;;;-142.13;23.94
11712;BME280;5912;51.034;6.984;2023-06-19T11:53:20;55444.97;;;-142.13;23.79
11712;BME280;5912;51.034;6.984;2023-06-19T11:55:45;55406.94;;;-142.13;23.99
11712;BME280;5912;51.034;6.984;2023-06-19T11:58:11;55404.94;;;-142.13;24.10
11712;BME280;5912;51.034;6.984;2023-06-19T12:00:36;55390.91;;;-142.13;23.90
11712;BME280;5912;51.034;6.984;2023-06-19T12:03:03;55422.94;;;-142.13;23.93
11712;BME280;5912;51.034;6.984;2023-06-19T12:05:28;55412.94;;;-142.13;23.88
11712;BME280;5912;51.034;6.984;2023-06-19T12:07:53;55440.97;;;-142.13;23.74
11712;BME280;5912;51.034;6.984;2023-06-19T12:10:19;55402.91;;;-142.13;23.51
11712;BME280;5912;51.034;6.984;2023-06-19T12:12:44;55414.94;;;-142.13;23.47
11712;BME280;5912;51.034;6.984;2023-06-19T12:15:09;55479.03;;;-142.13;23.86
11712;BME280;5912;51.034;6.984;2023-06-19T12:17:35;55440.97;;;-142.13;23.82
11712;BME280;5912;51.034;6.984;2023-06-19T12:20:02;55436.97;;;-142.13;23.47
11712;BME280;5912;51.034;6.984;2023-06-19T12:22:32;55400.91;;;-142.13;23.96
11712;BME280;5912;51.034;6.984;2023-06-19T12:24:57;55422.94;;;-142.13;23.79
11712;BME280;5912;51.034;6.984;2023-06-19T12:27:22;55418.94;;;-142.13;22.91
11712;BME280;5912;51.034;6.984;2023-06-19T12:29:48;55412.94;;;-142.13;22.92
11712;BME280;5912;51.034;6.984;2023-06-19T12:32:13;55402.91;;;-142.13;23.10
11712;BME280;5912;51.034;6.984;2023-06-19T12:34:38;55424.94;;;-142.13;23.21
11712;BME280;5912;51.034;6.984;2023-06-19T12:37:04;55410.94;;;-142.13;23.60
11712;BME280;5912;51.034;6.984;2023-06-19T12:39:30;55426.94;;;-142.13;23.27
11712;BME280;5912;51.034;6.984;2023-06-19T12:41:56;55442.97;;;-142.13;23.75
11712;BME280;5912;51.034;6.984;2023-06-19T12:44:22;55438.97;;;-142.13;23.81
11712;BME280;5912;51.034;6.984;2023-06-19T12:46:49;55442.97;;;-142.13;23.62
11712;BME280;5912;51.034;6.984;2023-06-19T12:49:15;55432.97;;;-142.13;23.89